createdAt,value
2018-12-17T00:01:41.278Z,-0.80
2018-12-17T00:06:25.008Z,-0.80
2018-12-17T00:11:08.893Z,-0.80
2018-12-17T00:15:52.757Z,-0.80
2018-12-17T00:20:36.445Z,-0.70
2018-12-17T00:25:20.129Z,-0.50
2018-12-17T00:30:04.349Z,-0.50
2018-12-17T00:34:47.999Z,-0.40
2018-12-17T00:39:31.693Z,-0.40
2018-12-17T00:44:15.476Z,-0.40
2018-12-17T00:48:59.220Z,-0.40
2018-12-17T00:53:42.898Z,-0.40
2018-12-17T00:58:26.608Z,-0.50
2018-12-17T01:03:10.357Z,-0.50
2018-12-17T01:07:54.275Z,-0.50
2018-12-17T01:12:38.204Z,-0.40
2018-12-17T01:17:21.996Z,-0.30
2018-12-17T01:22:06.453Z,-0.20
2018-12-17T01:26:50.204Z,-0.20
2018-12-17T01:31:34.003Z,-0.10
2018-12-17T01:36:17.759Z,-0.10
2018-12-17T01:41:01.738Z,-0.10
2018-12-17T01:45:45.461Z,0.00
2018-12-17T01:50:29.395Z,-0.10
2018-12-17T01:55:13.108Z,0.00
2018-12-17T01:59:56.934Z,0.10
2018-12-17T02:04:40.784Z,0.10
2018-12-17T02:09:24.779Z,0.20
2018-12-17T02:14:08.463Z,0.30
2018-12-17T02:18:52.270Z,0.40
2018-12-17T02:23:36.008Z,0.50
2018-12-17T02:28:20.091Z,0.30
2018-12-17T02:33:03.744Z,0.40
2018-12-17T02:37:47.525Z,0.50
2018-12-17T02:42:31.212Z,0.40
2018-12-17T02:47:14.982Z,0.40
2018-12-17T02:51:58.651Z,0.50
2018-12-17T02:56:42.457Z,0.60
2018-12-17T03:01:26.172Z,0.60
2018-12-17T03:06:09.942Z,0.60
2018-12-17T03:10:53.929Z,0.60
2018-12-17T03:15:37.777Z,0.60
2018-12-17T03:20:21.536Z,0.50
2018-12-17T03:25:05.737Z,0.60
2018-12-17T03:29:49.462Z,0.70
2018-12-17T03:34:33.343Z,0.70
2018-12-17T03:39:17.226Z,0.70
2018-12-17T03:44:00.966Z,0.70
2018-12-17T03:48:44.719Z,0.80
2018-12-17T03:53:28.722Z,0.80
2018-12-17T03:58:12.426Z,0.80
2018-12-17T04:02:56.198Z,0.80
2018-12-17T04:07:39.951Z,0.80
2018-12-17T04:12:23.799Z,0.80
2018-12-17T04:17:07.451Z,0.80
2018-12-17T04:21:52.937Z,0.80
2018-12-17T04:26:36.804Z,0.80
2018-12-17T04:31:20.476Z,0.80
2018-12-17T04:36:04.252Z,0.80
2018-12-17T04:40:48.024Z,0.80
2018-12-17T04:45:31.754Z,0.80
2018-12-17T04:50:15.443Z,0.80
2018-12-17T04:54:59.175Z,0.90
2018-12-17T04:59:43.120Z,0.80
2018-12-17T05:04:26.811Z,0.80
2018-12-17T05:09:10.506Z,0.90
2018-12-17T05:13:54.237Z,0.80
2018-12-17T05:18:37.901Z,0.70
2018-12-17T05:23:21.629Z,0.70
2018-12-17T05:28:05.387Z,0.70
2018-12-17T05:32:49.089Z,0.80
2018-12-17T05:37:33.047Z,0.70
2018-12-17T05:42:16.767Z,0.60
2018-12-17T05:47:02.463Z,0.60
2018-12-17T05:51:47.154Z,0.60
2018-12-17T05:56:30.878Z,0.70
2018-12-17T06:01:14.560Z,0.80
2018-12-17T06:05:58.254Z,0.80
2018-12-17T06:10:42.579Z,0.70
2018-12-17T06:15:26.238Z,0.90
2018-12-17T06:20:10.042Z,0.70
2018-12-17T06:24:53.713Z,0.80
2018-12-17T06:29:37.457Z,0.90
2018-12-17T06:34:21.522Z,0.90
2018-12-17T06:39:07.902Z,0.90
2018-12-17T06:43:51.872Z,0.90
2018-12-17T06:48:35.601Z,0.90
2018-12-17T06:53:19.264Z,0.90
2018-12-17T06:58:03.433Z,0.90
2018-12-17T07:02:47.078Z,0.90
2018-12-17T07:07:30.936Z,0.90
2018-12-17T07:12:14.961Z,0.80
2018-12-17T07:16:58.695Z,0.90
2018-12-17T07:21:42.400Z,1.00
2018-12-17T07:26:26.357Z,1.10
2018-12-17T07:31:10.015Z,1.00
2018-12-17T07:35:53.691Z,1.10
2018-12-17T07:40:37.580Z,1.10
2018-12-17T07:45:21.306Z,1.20
2018-12-17T07:50:05.703Z,1.20
2018-12-17T07:54:49.402Z,1.30
2018-12-17T07:59:33.159Z,1.30
2018-12-17T08:04:16.823Z,1.40
2018-12-17T08:09:00.490Z,1.40
2018-12-17T08:13:44.874Z,1.50
2018-12-17T08:18:28.626Z,1.60
2018-12-17T08:23:12.361Z,1.70
2018-12-17T08:27:56.156Z,1.80
2018-12-17T08:32:39.930Z,1.90
2018-12-17T08:37:23.866Z,1.90
2018-12-17T08:42:07.818Z,1.90
2018-12-17T08:46:51.738Z,1.90
2018-12-17T08:51:35.629Z,1.90
2018-12-17T08:56:19.328Z,2.10
2018-12-17T09:01:21.114Z,2.20
2018-12-17T09:06:15.090Z,2.30
2018-12-17T09:16:09.852Z,2.40
2018-12-17T09:20:53.581Z,2.40
2018-12-17T09:25:37.338Z,2.60
2018-12-17T09:30:21.111Z,2.70
2018-12-17T09:35:05.165Z,2.90
2018-12-17T09:39:48.866Z,3.10
2018-12-17T09:44:32.691Z,3.20
2018-12-17T09:49:16.598Z,3.40
2018-12-17T09:54:00.240Z,3.50
2018-12-17T09:58:44.150Z,3.60
2018-12-17T10:03:27.981Z,3.60
2018-12-17T10:08:11.635Z,3.80
2018-12-17T10:12:55.549Z,3.70
2018-12-17T10:17:39.313Z,3.70
2018-12-17T10:22:22.959Z,3.70
2018-12-17T10:27:06.601Z,3.70
2018-12-17T10:31:50.223Z,3.70
2018-12-17T10:36:34.083Z,3.70
2018-12-17T10:41:17.768Z,3.80
2018-12-17T10:46:01.694Z,3.90
2018-12-17T10:50:45.596Z,4.20
2018-12-17T10:55:29.441Z,4.50
2018-12-17T11:00:17.773Z,4.60
2018-12-17T11:05:07.805Z,4.90
2018-12-17T11:09:51.572Z,5.00
2018-12-17T11:14:35.326Z,5.20
2018-12-17T11:19:18.989Z,5.30
2018-12-17T11:24:15.274Z,5.70
2018-12-17T11:29:04.662Z,5.70
2018-12-17T11:33:49.660Z,5.70
2018-12-17T11:38:34.986Z,5.60
2018-12-17T11:43:28.404Z,5.40
2018-12-17T11:48:18.356Z,5.70
2018-12-17T11:53:12.466Z,5.70
2018-12-17T11:58:09.751Z,6.00
2018-12-17T12:02:59.055Z,6.30
2018-12-17T12:07:50.819Z,6.30
2018-12-17T12:12:40.689Z,6.40
2018-12-17T12:17:41.010Z,6.20
2018-12-17T12:22:32.730Z,6.00
2018-12-17T12:27:18.524Z,5.60
2018-12-17T12:32:03.734Z,5.50
2018-12-17T12:36:53.639Z,5.50
2018-12-17T12:41:47.694Z,5.40
2018-12-17T12:46:41.817Z,5.30
2018-12-17T12:51:32.839Z,5.20
2018-12-17T12:56:20.827Z,5.20
2018-12-17T13:01:07.816Z,5.10
2018-12-17T13:06:02.673Z,5.00
2018-12-17T13:10:49.955Z,5.00
2018-12-17T13:15:45.703Z,5.00
2018-12-17T13:20:39.268Z,5.00
2018-12-17T13:25:40.725Z,4.90
2018-12-17T13:30:27.553Z,4.70
2018-12-17T13:35:15.136Z,4.40
2018-12-17T13:40:10.709Z,4.20
2018-12-17T13:50:29.969Z,4.20
2018-12-17T13:55:11.722Z,4.20
2018-12-17T13:59:55.433Z,4.20
2018-12-17T14:04:45.005Z,4.10
2018-12-17T14:09:34.568Z,4.10
2018-12-17T14:19:29.489Z,3.90
2018-12-17T14:34:53.548Z,3.30
2018-12-17T15:06:01.242Z,2.70
2018-12-17T15:15:56.525Z,2.40
2018-12-17T15:20:40.255Z,2.30
2018-12-17T15:25:23.897Z,2.30
2018-12-17T15:35:03.135Z,2.40
2018-12-17T15:39:47.039Z,2.40
2018-12-17T15:44:30.735Z,2.50
2018-12-17T15:49:14.494Z,2.30
2018-12-17T16:04:19.966Z,2.20
2018-12-17T16:09:04.088Z,2.10
2018-12-17T16:13:47.928Z,2.20
2018-12-17T16:18:31.612Z,2.30
2018-12-17T16:23:15.594Z,2.40
2018-12-17T16:27:59.452Z,2.50
2018-12-17T16:32:43.285Z,2.60
2018-12-17T16:37:27.584Z,2.70
2018-12-17T16:42:11.363Z,2.90
2018-12-17T16:46:55.396Z,3.00
2018-12-17T16:51:40.968Z,3.00
2018-12-17T16:56:24.724Z,2.90
2018-12-17T17:01:08.512Z,2.90
2018-12-17T17:05:53.490Z,2.80
2018-12-17T17:10:42.950Z,2.80
2018-12-17T17:15:27.773Z,2.90
2018-12-17T17:20:11.727Z,2.80
2018-12-17T17:24:55.680Z,2.70
2018-12-17T17:29:39.409Z,2.70
2018-12-17T17:34:23.191Z,2.70
2018-12-17T17:39:08.535Z,2.70
2018-12-17T17:43:52.344Z,2.80
2018-12-17T17:48:36.411Z,2.80
2018-12-17T17:53:20.348Z,2.90
2018-12-17T17:58:04.230Z,3.00
2018-12-17T18:02:48.003Z,3.10
2018-12-17T18:07:31.954Z,3.30
2018-12-17T18:12:15.725Z,3.30
2018-12-17T18:17:05.512Z,3.40
2018-12-17T18:22:02.010Z,3.40
2018-12-17T18:26:55.289Z,3.40
2018-12-17T18:31:38.960Z,3.40
2018-12-17T18:36:22.678Z,3.50
2018-12-17T18:46:13.739Z,3.60
2018-12-17T18:50:57.783Z,3.60
2018-12-17T18:55:50.973Z,3.70
2018-12-17T19:00:35.037Z,3.80
2018-12-17T19:05:18.986Z,3.70
2018-12-17T19:10:03.031Z,3.70
2018-12-17T19:14:46.847Z,3.70
2018-12-17T19:19:30.905Z,3.70
2018-12-17T19:24:14.757Z,3.70
2018-12-17T19:28:58.802Z,3.70
2018-12-17T19:33:43.655Z,3.70
2018-12-17T19:38:27.772Z,3.70
2018-12-17T19:43:11.591Z,3.70
2018-12-17T19:47:55.749Z,3.70
2018-12-17T19:52:39.787Z,3.70
2018-12-17T19:57:23.833Z,3.70
2018-12-17T20:02:07.749Z,3.60
2018-12-17T20:07:01.165Z,3.60
2018-12-17T20:11:45.727Z,3.60
2018-12-17T20:16:29.561Z,3.60
2018-12-17T20:21:13.303Z,3.50
2018-12-17T20:25:57.119Z,3.70
2018-12-17T20:30:40.853Z,3.60
2018-12-17T20:35:24.810Z,3.60
2018-12-17T20:40:09.719Z,3.70
2018-12-17T20:44:53.663Z,3.60
2018-12-17T20:49:37.497Z,3.60
2018-12-17T20:54:21.661Z,3.60
2018-12-17T20:59:05.747Z,3.70
2018-12-17T21:03:49.590Z,3.60
2018-12-17T21:08:33.472Z,3.50
2018-12-17T21:13:17.281Z,3.50
2018-12-17T21:18:01.235Z,3.50
2018-12-17T21:22:45.215Z,3.50
2018-12-17T21:27:29.217Z,3.60
2018-12-17T21:32:13.135Z,3.60
2018-12-17T21:36:57.194Z,3.60
2018-12-17T21:41:42.186Z,3.60
2018-12-17T21:46:26.204Z,3.60
2018-12-17T21:56:20.866Z,3.60
2018-12-17T22:01:04.583Z,3.50
2018-12-17T22:05:48.286Z,3.40
2018-12-17T22:10:34.847Z,3.40
2018-12-17T22:15:18.621Z,3.30
2018-12-17T22:20:02.469Z,3.50
2018-12-17T22:24:46.256Z,3.50
2018-12-17T22:29:30.037Z,3.50
2018-12-17T22:34:13.806Z,3.40
2018-12-17T22:38:57.538Z,3.40
2018-12-17T22:43:41.284Z,3.50
2018-12-17T22:48:24.939Z,3.50
2018-12-17T22:53:08.626Z,3.50
2018-12-17T22:57:52.263Z,3.40
2018-12-17T23:02:35.954Z,3.40
2018-12-17T23:07:19.668Z,3.40
2018-12-17T23:12:14.412Z,3.50
2018-12-17T23:17:09.185Z,3.50
2018-12-17T23:21:53.148Z,3.50
2018-12-17T23:26:36.976Z,3.50
2018-12-17T23:31:21.307Z,3.40
2018-12-17T23:36:05.111Z,3.30
2018-12-17T23:40:49.068Z,3.30
2018-12-17T23:45:32.844Z,3.30
2018-12-17T23:50:16.962Z,3.30
2018-12-17T23:55:00.674Z,3.30
2018-12-17T23:59:44.366Z,3.30
